createdAt,value
2019-03-28T00:02:09.844Z,8.90
2019-03-28T00:04:42.192Z,9.00
2019-03-28T00:07:13.088Z,8.90
2019-03-28T00:09:43.395Z,8.90
2019-03-28T00:12:13.658Z,9.00
2019-03-28T00:14:43.934Z,9.00
2019-03-28T00:17:14.294Z,9.00
2019-03-28T00:19:44.554Z,9.00
2019-03-28T00:22:21.547Z,9.00
2019-03-28T00:25:01.243Z,9.00
2019-03-28T00:27:31.515Z,9.00
2019-03-28T00:30:01.926Z,9.10
2019-03-28T00:32:32.186Z,9.00
2019-03-28T00:35:02.530Z,9.10
2019-03-28T00:37:32.806Z,9.10
2019-03-28T00:40:03.119Z,9.10
2019-03-28T00:42:33.386Z,9.10
2019-03-28T00:45:03.896Z,9.10
2019-03-28T00:47:34.138Z,9.10
2019-03-28T00:50:04.970Z,9.20
2019-03-28T00:52:35.177Z,9.20
2019-03-28T00:55:06.785Z,9.10
2019-03-28T00:57:37.995Z,9.10
2019-03-28T01:00:09.011Z,9.00
2019-03-28T01:02:39.330Z,9.00
2019-03-28T01:05:10.177Z,9.00
2019-03-28T01:07:40.410Z,9.00
2019-03-28T01:10:11.114Z,9.00
2019-03-28T01:12:41.544Z,9.00
2019-03-28T01:15:11.888Z,9.00
2019-03-28T01:17:42.108Z,9.10
2019-03-28T01:20:12.422Z,9.10
2019-03-28T01:22:42.621Z,9.10
2019-03-28T01:25:12.999Z,9.10
2019-03-28T01:27:43.207Z,9.10
2019-03-28T01:30:14.015Z,9.10
2019-03-28T01:32:44.269Z,9.10
2019-03-28T01:35:14.558Z,9.10
2019-03-28T01:37:44.780Z,9.10
2019-03-28T01:40:15.062Z,9.20
2019-03-28T01:42:45.387Z,9.20
2019-03-28T01:45:15.649Z,9.20
2019-03-28T01:47:45.874Z,9.10
2019-03-28T01:50:16.268Z,9.20
2019-03-28T01:52:47.285Z,9.10
2019-03-28T01:55:18.623Z,9.20
2019-03-28T01:57:48.930Z,9.20
2019-03-28T02:00:19.318Z,9.20
2019-03-28T02:02:49.689Z,9.10
2019-03-28T02:05:19.989Z,9.10
2019-03-28T02:07:50.354Z,9.10
2019-03-28T02:10:20.699Z,9.10
2019-03-28T02:12:51.018Z,9.10
2019-03-28T02:15:21.235Z,9.10
2019-03-28T02:17:51.530Z,9.10
2019-03-28T02:20:21.781Z,9.10
2019-03-28T02:22:52.004Z,9.10
2019-03-28T02:25:22.311Z,9.10
2019-03-28T02:27:52.532Z,9.10
2019-03-28T02:30:32.028Z,9.10
2019-03-28T02:33:02.658Z,9.10
2019-03-28T02:35:32.966Z,9.00
2019-03-28T02:38:03.264Z,9.00
2019-03-28T02:40:33.554Z,9.00
2019-03-28T02:43:03.786Z,9.00
2019-03-28T02:45:34.143Z,9.00
2019-03-28T02:48:04.426Z,9.00
2019-03-28T02:50:34.704Z,9.00
2019-03-28T02:53:04.922Z,9.00
2019-03-28T02:55:35.257Z,9.00
2019-03-28T02:58:05.594Z,9.00
2019-03-28T03:00:35.815Z,9.10
2019-03-28T03:03:06.030Z,9.00
2019-03-28T03:05:36.294Z,9.00
2019-03-28T03:08:07.710Z,9.00
2019-03-28T03:10:38.356Z,9.00
2019-03-28T03:13:08.597Z,9.10
2019-03-28T03:15:38.812Z,9.10
2019-03-28T03:18:09.118Z,9.10
2019-03-28T03:20:39.335Z,9.10
2019-03-28T03:23:09.558Z,9.10
2019-03-28T03:25:39.876Z,9.10
2019-03-28T03:28:10.107Z,9.20
2019-03-28T03:30:40.346Z,9.20
2019-03-28T03:33:10.601Z,9.20
2019-03-28T03:35:40.906Z,9.20
2019-03-28T03:38:11.132Z,9.20
2019-03-28T03:40:41.358Z,9.20
2019-03-28T03:43:11.573Z,9.20
2019-03-28T03:45:41.898Z,9.20
2019-03-28T03:48:12.275Z,9.20
2019-03-28T03:50:42.671Z,9.30
2019-03-28T03:53:12.903Z,9.20
2019-03-28T03:55:43.125Z,9.20
2019-03-28T03:58:15.911Z,9.20
2019-03-28T04:00:45.257Z,9.20
2019-03-28T04:03:15.460Z,9.20
2019-03-28T04:05:45.684Z,9.20
2019-03-28T04:08:16.057Z,9.20
2019-03-28T04:10:46.295Z,9.20
2019-03-28T04:13:16.537Z,9.20
2019-03-28T04:15:46.795Z,9.20
2019-03-28T04:18:35.967Z,9.20
2019-03-28T04:21:06.388Z,9.20
2019-03-28T04:23:36.607Z,9.20
2019-03-28T04:26:06.905Z,9.20
2019-03-28T04:28:37.078Z,9.20
2019-03-28T04:31:07.403Z,9.20
2019-03-28T04:33:37.650Z,9.20
2019-03-28T04:36:07.969Z,9.30
2019-03-28T04:38:38.291Z,9.30
2019-03-28T04:41:08.608Z,9.30
2019-03-28T04:43:38.879Z,9.30
2019-03-28T04:46:09.342Z,9.20
2019-03-28T04:48:39.608Z,9.20
2019-03-28T04:51:11.811Z,9.20
2019-03-28T04:53:42.375Z,9.30
2019-03-28T04:56:12.664Z,9.30
2019-03-28T04:58:44.979Z,9.30
2019-03-28T05:01:15.342Z,9.30
2019-03-28T05:03:45.569Z,9.30
2019-03-28T05:06:15.815Z,9.30
2019-03-28T05:08:46.087Z,9.30
2019-03-28T05:11:16.387Z,9.30
2019-03-28T05:13:46.662Z,9.30
2019-03-28T05:16:16.881Z,9.30
2019-03-28T05:18:47.118Z,9.30
2019-03-28T05:21:17.434Z,9.30
2019-03-28T05:23:47.663Z,9.30
2019-03-28T05:26:17.961Z,9.30
2019-03-28T05:28:57.319Z,9.30
2019-03-28T05:31:20.745Z,9.30
2019-03-28T05:33:51.010Z,9.30
2019-03-28T05:36:21.362Z,9.30
2019-03-28T05:38:51.759Z,9.30
2019-03-28T05:41:22.075Z,9.30
2019-03-28T05:43:52.456Z,9.20
2019-03-28T05:46:22.669Z,9.20
2019-03-28T05:48:53.007Z,9.20
2019-03-28T05:51:24.401Z,9.30
2019-03-28T05:53:54.709Z,9.30
2019-03-28T05:56:25.089Z,9.30
2019-03-28T05:58:55.423Z,9.30
2019-03-28T06:01:25.639Z,9.30
2019-03-28T06:03:55.847Z,9.40
2019-03-28T06:06:29.131Z,9.40
2019-03-28T06:08:59.422Z,9.40
2019-03-28T06:11:29.730Z,9.50
2019-03-28T06:13:59.988Z,9.50
2019-03-28T06:16:30.216Z,9.50
2019-03-28T06:19:00.561Z,9.50
2019-03-28T06:21:30.821Z,9.50
2019-03-28T06:24:01.141Z,9.40
2019-03-28T06:26:31.407Z,9.40
2019-03-28T06:29:01.677Z,9.40
2019-03-28T06:31:33.525Z,9.50
2019-03-28T06:34:03.781Z,9.50
2019-03-28T06:36:34.001Z,9.50
2019-03-28T06:39:05.300Z,9.50
2019-03-28T06:41:35.621Z,9.50
2019-03-28T06:44:05.887Z,9.40
2019-03-28T06:46:36.102Z,9.40
2019-03-28T06:49:06.489Z,9.50
2019-03-28T06:51:36.750Z,9.50
2019-03-28T06:54:07.062Z,9.50
2019-03-28T06:56:38.757Z,9.50
2019-03-28T06:59:09.031Z,9.50
2019-03-28T07:01:39.393Z,9.50
2019-03-28T07:04:09.716Z,9.50
2019-03-28T07:06:40.576Z,9.50
2019-03-28T07:09:11.107Z,9.50
2019-03-28T07:11:41.476Z,9.50
2019-03-28T07:14:11.836Z,9.50
2019-03-28T07:16:42.063Z,9.50
2019-03-28T07:19:12.285Z,9.50
2019-03-28T07:21:42.503Z,9.50
2019-03-28T07:24:12.708Z,9.60
2019-03-28T07:26:42.975Z,9.60
2019-03-28T07:29:13.302Z,9.60
2019-03-28T07:31:43.594Z,9.60
2019-03-28T07:34:13.891Z,9.60
2019-03-28T07:36:44.162Z,9.70
2019-03-28T07:39:14.389Z,9.70
2019-03-28T07:41:44.646Z,9.70
2019-03-28T07:44:14.934Z,9.80
2019-03-28T07:46:47.484Z,9.80
2019-03-28T07:49:17.140Z,9.80
2019-03-28T07:51:47.486Z,9.80
2019-03-28T07:54:17.842Z,9.90
2019-03-28T07:56:48.146Z,9.90
2019-03-28T07:59:18.398Z,9.90
2019-03-28T08:01:48.952Z,9.90
2019-03-28T08:04:19.260Z,9.90
2019-03-28T08:06:50.449Z,10.00
2019-03-28T08:09:21.572Z,10.00
2019-03-28T08:11:51.805Z,10.10
2019-03-28T08:14:22.040Z,10.10
2019-03-28T08:16:52.340Z,10.30
2019-03-28T08:19:22.638Z,10.40
2019-03-28T08:21:52.918Z,10.40
2019-03-28T08:24:23.232Z,10.40
2019-03-28T08:26:53.464Z,10.40
2019-03-28T08:29:23.662Z,10.40
2019-03-28T08:31:54.500Z,10.40
2019-03-28T08:34:24.876Z,10.40
2019-03-28T08:36:55.348Z,10.50
2019-03-28T08:39:26.308Z,10.40
2019-03-28T08:41:56.545Z,10.40
2019-03-28T08:44:26.797Z,10.30
2019-03-28T08:46:57.114Z,10.30
2019-03-28T08:49:27.400Z,10.30
2019-03-28T08:51:57.694Z,10.30
2019-03-28T08:54:27.979Z,10.30
2019-03-28T08:56:58.262Z,10.40
2019-03-28T08:59:28.781Z,10.60
2019-03-28T09:01:59.194Z,10.60
2019-03-28T09:04:29.559Z,10.60
2019-03-28T09:07:00.198Z,10.70
2019-03-28T09:09:31.542Z,10.70
2019-03-28T09:12:02.005Z,10.70
2019-03-28T09:14:35.052Z,10.80
2019-03-28T09:17:07.042Z,10.90
2019-03-28T09:19:39.031Z,11.00
2019-03-28T09:22:09.790Z,11.00
2019-03-28T09:24:40.233Z,11.00
2019-03-28T09:27:10.565Z,11.10
2019-03-28T09:29:41.075Z,11.10
2019-03-28T09:32:11.738Z,11.10
2019-03-28T09:34:41.994Z,11.10
2019-03-28T09:37:12.362Z,11.00
2019-03-28T09:39:42.731Z,11.00
2019-03-28T09:42:13.152Z,11.10
2019-03-28T09:44:43.538Z,11.10
2019-03-28T09:47:13.746Z,11.20
2019-03-28T09:49:43.998Z,11.20
2019-03-28T09:52:14.252Z,11.10
2019-03-28T09:54:44.527Z,11.10
2019-03-28T09:57:14.879Z,11.10
2019-03-28T09:59:45.224Z,11.10
2019-03-28T10:02:15.564Z,11.10
2019-03-28T10:04:45.943Z,11.00
2019-03-28T10:07:16.224Z,11.00
2019-03-28T10:09:47.045Z,10.90
2019-03-28T10:12:17.377Z,10.90
2019-03-28T10:14:47.736Z,11.00
2019-03-28T10:17:18.199Z,11.00
2019-03-28T10:19:48.465Z,11.10
2019-03-28T10:22:22.357Z,11.10
2019-03-28T10:24:52.023Z,11.10
2019-03-28T10:27:22.376Z,11.10
2019-03-28T10:29:52.716Z,11.20
2019-03-28T10:32:23.097Z,11.20
2019-03-28T10:34:53.414Z,11.10
2019-03-28T10:37:23.796Z,11.00
2019-03-28T10:39:54.025Z,11.00
2019-03-28T10:42:24.421Z,10.90
2019-03-28T10:44:55.762Z,11.10
2019-03-28T10:47:27.367Z,11.20
2019-03-28T10:49:57.907Z,11.40
2019-03-28T10:52:28.207Z,11.50
2019-03-28T10:54:58.634Z,11.40
2019-03-28T10:57:30.342Z,11.30
2019-03-28T11:00:02.090Z,11.30
2019-03-28T11:02:33.228Z,11.20
2019-03-28T11:05:03.905Z,11.20
2019-03-28T11:07:34.227Z,11.20
2019-03-28T11:10:05.660Z,11.10
2019-03-28T11:12:36.016Z,11.20
2019-03-28T11:15:07.246Z,11.40
2019-03-28T11:17:37.474Z,11.40
2019-03-28T11:20:09.797Z,11.40
2019-03-28T11:22:40.220Z,11.40
2019-03-28T11:25:11.542Z,11.40
2019-03-28T11:27:41.930Z,11.30
2019-03-28T11:30:13.268Z,11.30
2019-03-28T11:32:43.568Z,11.30
2019-03-28T11:35:15.514Z,11.20
2019-03-28T11:37:45.815Z,11.30
2019-03-28T11:40:16.928Z,11.30
2019-03-28T11:42:47.197Z,11.40
2019-03-28T11:45:17.870Z,11.40
2019-03-28T11:47:48.229Z,11.50
2019-03-28T11:50:18.736Z,11.50
2019-03-28T11:52:49.359Z,11.50
2019-03-28T11:55:19.708Z,11.50
2019-03-28T11:57:50.022Z,11.60
2019-03-28T12:00:21.042Z,11.70
2019-03-28T12:02:51.282Z,11.80
2019-03-28T12:05:21.659Z,11.90
2019-03-28T12:07:51.937Z,11.90
2019-03-28T12:10:22.393Z,12.00
2019-03-28T12:12:52.782Z,12.30
2019-03-28T12:15:23.019Z,12.40
2019-03-28T12:17:53.266Z,12.40
2019-03-28T12:20:23.607Z,12.50
2019-03-28T12:22:56.060Z,12.50
2019-03-28T12:25:25.932Z,12.50
2019-03-28T12:27:56.234Z,12.50
2019-03-28T12:30:26.468Z,12.60
2019-03-28T12:32:56.945Z,12.50
2019-03-28T12:35:27.555Z,12.40
2019-03-28T12:37:58.024Z,12.40
2019-03-28T12:40:28.410Z,12.30
2019-03-28T12:42:58.727Z,12.20
2019-03-28T12:45:29.702Z,12.00
2019-03-28T12:48:00.048Z,12.00
2019-03-28T12:50:30.265Z,11.80
2019-03-28T12:53:00.548Z,11.80
2019-03-28T12:55:30.974Z,11.70
2019-03-28T12:58:01.198Z,11.70
2019-03-28T13:00:35.856Z,11.80
2019-03-28T13:03:09.261Z,11.80
2019-03-28T13:05:40.790Z,11.70
2019-03-28T13:08:11.092Z,11.70
2019-03-28T13:10:41.364Z,11.50
2019-03-28T13:13:11.578Z,11.50
2019-03-28T13:15:41.920Z,11.50
2019-03-28T13:18:12.149Z,11.50
2019-03-28T13:20:42.366Z,11.50
2019-03-28T13:23:12.669Z,11.60
2019-03-28T13:25:43.017Z,11.60
2019-03-28T13:28:13.306Z,11.60
2019-03-28T13:30:43.681Z,11.60
2019-03-28T13:33:13.938Z,11.70
2019-03-28T13:35:44.308Z,11.70
2019-03-28T13:38:14.602Z,11.80
2019-03-28T13:40:44.899Z,11.80
2019-03-28T13:43:15.301Z,11.70
2019-03-28T13:45:45.544Z,11.60
2019-03-28T13:48:20.815Z,11.60
2019-03-28T13:50:51.291Z,11.50
2019-03-28T13:53:21.553Z,11.50
2019-03-28T13:55:52.204Z,11.60
2019-03-28T13:58:22.679Z,11.50
2019-03-28T14:00:54.581Z,11.60
2019-03-28T14:03:24.823Z,11.70
2019-03-28T14:05:55.165Z,11.80
2019-03-28T14:08:25.551Z,11.80
2019-03-28T14:10:56.018Z,11.90
2019-03-28T14:13:26.463Z,11.90
2019-03-28T14:15:56.875Z,12.00
2019-03-28T14:18:27.942Z,12.00
2019-03-28T14:20:58.219Z,12.00
2019-03-28T14:23:28.582Z,12.10
2019-03-28T14:25:58.802Z,12.00
2019-03-28T14:28:29.137Z,11.90
2019-03-28T14:31:00.986Z,11.90
2019-03-28T14:33:31.700Z,11.80
2019-03-28T14:36:02.119Z,11.80
2019-03-28T14:38:32.561Z,11.80
2019-03-28T14:41:02.888Z,11.80
2019-03-28T14:43:33.238Z,11.80
2019-03-28T14:46:03.617Z,11.80
2019-03-28T14:48:33.873Z,11.80
2019-03-28T14:51:04.190Z,11.80
2019-03-28T14:53:34.726Z,11.80
2019-03-28T14:56:05.597Z,11.70
2019-03-28T14:58:36.583Z,11.70
2019-03-28T15:01:06.956Z,11.70
2019-03-28T15:03:38.459Z,11.70
2019-03-28T15:06:08.819Z,11.70
2019-03-28T15:08:39.082Z,11.60
2019-03-28T15:11:09.427Z,11.60
2019-03-28T15:13:40.639Z,11.60
2019-03-28T15:16:11.069Z,11.60
2019-03-28T15:18:41.403Z,11.60
2019-03-28T15:21:11.743Z,11.70
2019-03-28T15:23:42.252Z,11.80
2019-03-28T15:26:12.523Z,11.90
2019-03-28T15:28:42.906Z,11.90
2019-03-28T15:31:13.189Z,11.90
2019-03-28T15:33:43.567Z,11.90
2019-03-28T15:36:13.898Z,11.90
2019-03-28T15:38:44.187Z,11.80
2019-03-28T15:41:14.504Z,11.70
2019-03-28T15:43:45.549Z,11.60
2019-03-28T15:46:15.908Z,11.50
2019-03-28T15:48:46.355Z,11.40
2019-03-28T15:51:16.669Z,11.30
2019-03-28T15:53:49.608Z,11.30
2019-03-28T15:56:19.173Z,11.30
2019-03-28T15:58:49.430Z,11.20
2019-03-28T16:01:20.031Z,11.10
2019-03-28T16:03:53.305Z,11.10
2019-03-28T16:06:22.612Z,11.10
2019-03-28T16:08:53.653Z,11.00
2019-03-28T16:11:24.239Z,11.00
2019-03-28T16:13:54.596Z,11.00
2019-03-28T16:16:24.898Z,10.90
2019-03-28T16:18:55.201Z,10.90
2019-03-28T16:21:26.846Z,10.90
2019-03-28T16:23:59.633Z,10.90
2019-03-28T16:26:30.025Z,10.90
2019-03-28T16:29:00.363Z,10.90
2019-03-28T16:31:30.785Z,10.90
2019-03-28T16:34:06.870Z,10.90
2019-03-28T16:36:33.222Z,10.90
2019-03-28T16:39:04.426Z,10.90
2019-03-28T16:41:38.323Z,10.90
2019-03-28T16:44:08.668Z,11.00
2019-03-28T16:46:39.142Z,11.00
2019-03-28T16:49:09.861Z,11.10
2019-03-28T16:51:43.263Z,11.10
2019-03-28T16:54:12.222Z,11.10
2019-03-28T16:56:42.997Z,11.00
2019-03-28T16:59:13.383Z,11.00
2019-03-28T17:01:43.925Z,11.00
2019-03-28T17:04:20.891Z,10.90
2019-03-28T17:06:47.844Z,10.90
2019-03-28T17:09:19.525Z,10.90
2019-03-28T17:11:50.025Z,10.80
2019-03-28T17:14:20.537Z,10.80
2019-03-28T17:16:50.966Z,10.80
2019-03-28T17:19:22.950Z,10.80
2019-03-28T17:21:53.648Z,10.80
2019-03-28T17:24:23.911Z,10.70
2019-03-28T17:26:55.393Z,10.70
2019-03-28T17:29:25.698Z,10.70
2019-03-28T17:31:56.143Z,10.70
2019-03-28T17:34:34.758Z,10.70
2019-03-28T17:36:58.633Z,10.70
2019-03-28T17:39:28.964Z,10.70
2019-03-28T17:41:59.625Z,10.70
2019-03-28T17:44:30.237Z,10.70
2019-03-28T17:47:00.742Z,10.70
2019-03-28T17:49:31.170Z,10.70
2019-03-28T17:52:01.800Z,10.70
2019-03-28T17:54:33.004Z,10.70
2019-03-28T17:57:03.679Z,10.70
2019-03-28T17:59:34.125Z,10.70
2019-03-28T18:02:04.747Z,10.60
2019-03-28T18:04:47.414Z,10.60
2019-03-28T18:07:07.385Z,10.60
2019-03-28T18:09:39.191Z,10.60
2019-03-28T18:12:09.666Z,10.60
2019-03-28T18:14:40.036Z,10.60
2019-03-28T18:17:10.589Z,10.60
2019-03-28T18:19:42.668Z,10.60
2019-03-28T18:22:13.007Z,10.60
2019-03-28T18:24:43.446Z,10.60
2019-03-28T18:27:13.991Z,10.70
2019-03-28T18:29:44.394Z,10.70
2019-03-28T18:32:14.945Z,10.70
2019-03-28T18:34:45.671Z,10.70
2019-03-28T18:37:18.718Z,10.60
2019-03-28T18:39:49.379Z,10.70
2019-03-28T18:42:19.767Z,10.70
2019-03-28T18:44:50.585Z,10.70
2019-03-28T18:47:20.940Z,10.70
2019-03-28T18:49:51.314Z,10.70
2019-03-28T18:52:22.151Z,10.70
2019-03-28T18:54:52.566Z,10.70
2019-03-28T18:57:23.105Z,10.70
2019-03-28T18:59:53.420Z,10.70
2019-03-28T19:02:24.068Z,10.70
2019-03-28T19:04:54.566Z,10.70
2019-03-28T19:07:24.867Z,10.70
2019-03-28T19:09:55.277Z,10.70
2019-03-28T19:12:25.823Z,10.70
2019-03-28T19:14:56.097Z,10.70
2019-03-28T19:17:26.576Z,10.70
2019-03-28T19:19:59.529Z,10.70
2019-03-28T19:22:29.898Z,10.70
2019-03-28T19:25:00.375Z,10.70
2019-03-28T19:27:32.301Z,10.70
2019-03-28T19:30:02.939Z,10.70
2019-03-28T19:32:33.692Z,10.60
2019-03-28T19:35:04.577Z,10.60
2019-03-28T19:37:35.630Z,10.60
2019-03-28T19:40:07.008Z,10.50
2019-03-28T19:42:37.552Z,10.50
2019-03-28T19:45:09.320Z,10.50
2019-03-28T19:47:39.804Z,10.50
2019-03-28T19:50:11.782Z,10.50
2019-03-28T19:52:42.266Z,10.50
2019-03-28T19:55:15.904Z,10.50
2019-03-28T19:57:46.348Z,10.40
2019-03-28T20:00:17.897Z,10.40
2019-03-28T20:02:48.590Z,10.50
2019-03-28T20:05:18.930Z,10.50
2019-03-28T20:07:50.738Z,10.50
2019-03-28T20:10:21.100Z,10.50
2019-03-28T20:12:51.402Z,10.50
2019-03-28T20:15:21.796Z,10.50
2019-03-28T20:17:52.245Z,10.50
2019-03-28T20:20:25.378Z,10.50
2019-03-28T20:22:56.168Z,10.60
2019-03-28T20:25:27.224Z,10.60
2019-03-28T20:27:57.675Z,10.60
2019-03-28T20:30:28.200Z,10.50
2019-03-28T20:32:58.576Z,10.50
2019-03-28T20:35:29.019Z,10.50
2019-03-28T20:37:59.559Z,10.50
2019-03-28T20:40:29.831Z,10.50
2019-03-28T20:43:00.968Z,10.50
2019-03-28T20:45:31.662Z,10.60
2019-03-28T20:48:01.982Z,10.50
2019-03-28T20:50:33.464Z,10.50
2019-03-28T20:53:03.952Z,10.50
2019-03-28T20:55:34.271Z,10.50
2019-03-28T20:58:04.892Z,10.50
2019-03-28T21:00:39.125Z,10.50
2019-03-28T21:03:10.284Z,10.40
2019-03-28T21:05:40.878Z,10.40
2019-03-28T21:08:11.869Z,10.50
2019-03-28T21:10:42.230Z,10.50
2019-03-28T21:13:12.555Z,10.50
2019-03-28T21:15:42.882Z,10.50
2019-03-28T21:18:13.252Z,10.60
2019-03-28T21:20:43.736Z,10.50
2019-03-28T21:23:14.257Z,10.60
2019-03-28T21:25:44.588Z,10.60
2019-03-28T21:28:15.211Z,10.60
2019-03-28T21:30:47.559Z,10.60
2019-03-28T21:33:17.463Z,10.60
2019-03-28T21:35:47.971Z,10.60
2019-03-28T21:38:18.444Z,10.50
2019-03-28T21:40:48.735Z,10.50
2019-03-28T21:43:19.045Z,10.50
2019-03-28T21:45:49.475Z,10.50
2019-03-28T21:48:19.941Z,10.50
2019-03-28T21:50:50.419Z,10.50
2019-03-28T21:53:20.732Z,10.60
2019-03-28T21:55:55.480Z,10.50
2019-03-28T21:58:23.186Z,10.50
2019-03-28T22:00:53.861Z,10.50
2019-03-28T22:03:24.236Z,10.50
2019-03-28T22:05:54.676Z,10.60
2019-03-28T22:08:25.068Z,10.60
2019-03-28T22:10:55.405Z,10.60
2019-03-28T22:13:25.923Z,10.50
2019-03-28T22:15:56.320Z,10.50
2019-03-28T22:18:26.762Z,10.50
2019-03-28T22:20:57.061Z,10.50
2019-03-28T22:23:27.816Z,10.50
2019-03-28T22:25:58.174Z,10.50
2019-03-28T22:28:28.398Z,10.60
2019-03-28T22:30:58.801Z,10.50
2019-03-28T22:33:29.201Z,10.50
2019-03-28T22:35:59.616Z,10.50
2019-03-28T22:38:30.025Z,10.60
2019-03-28T22:41:00.488Z,10.50
2019-03-28T22:43:30.778Z,10.50
2019-03-28T22:46:01.219Z,10.60
2019-03-28T22:48:32.558Z,10.50
2019-03-28T22:51:02.990Z,10.60
2019-03-28T22:53:33.478Z,10.60
2019-03-28T22:56:03.863Z,10.60
2019-03-28T22:58:34.903Z,10.60
2019-03-28T23:01:05.678Z,10.60
2019-03-28T23:03:36.435Z,10.60
2019-03-28T23:06:06.835Z,10.60
2019-03-28T23:08:37.111Z,10.60
2019-03-28T23:11:07.489Z,10.60
2019-03-28T23:13:37.975Z,10.60
2019-03-28T23:16:08.250Z,10.60
2019-03-28T23:18:39.831Z,10.50
2019-03-28T23:21:11.379Z,10.50
2019-03-28T23:23:41.874Z,10.50
2019-03-28T23:26:12.312Z,10.40
2019-03-28T23:28:42.618Z,10.50
2019-03-28T23:31:14.110Z,10.50
2019-03-28T23:33:44.440Z,10.50
2019-03-28T23:36:14.787Z,10.50
2019-03-28T23:38:45.823Z,10.60
2019-03-28T23:41:16.531Z,10.60
2019-03-28T23:43:46.997Z,10.50
2019-03-28T23:46:17.453Z,10.50
2019-03-28T23:48:48.158Z,10.50
2019-03-28T23:51:18.637Z,10.50
2019-03-28T23:53:48.941Z,10.40
2019-03-28T23:56:19.407Z,10.50
2019-03-28T23:58:49.751Z,10.50
